createdAt,value
2019-02-12T00:00:03.988Z,5.67
2019-02-12T00:02:30.734Z,5.75
2019-02-12T00:04:57.604Z,5.75
2019-02-12T00:07:24.389Z,5.69
2019-02-12T00:09:51.276Z,5.49
2019-02-12T00:12:18.232Z,5.49
2019-02-12T00:14:45.460Z,5.34
2019-02-12T00:17:12.361Z,5.34
2019-02-12T00:19:39.309Z,5.30
2019-02-12T00:22:06.889Z,5.27
2019-02-12T00:24:34.123Z,5.31
2019-02-12T00:27:00.876Z,5.26
2019-02-12T00:29:27.875Z,5.22
2019-02-12T00:31:57.241Z,5.16
2019-02-12T00:34:24.005Z,5.05
2019-02-12T00:36:51.004Z,5.03
2019-02-12T00:39:17.916Z,4.88
2019-02-12T00:41:44.792Z,4.88
2019-02-12T00:44:13.976Z,4.72
2019-02-12T00:46:41.346Z,4.72
2019-02-12T00:49:08.108Z,4.63
2019-02-12T00:51:35.210Z,4.63
2019-02-12T00:54:02.273Z,4.62
2019-02-12T00:56:32.104Z,4.57
2019-02-12T00:59:00.355Z,4.57
2019-02-12T01:01:27.691Z,4.58
2019-02-12T01:03:54.608Z,4.58
2019-02-12T01:06:21.691Z,4.56
2019-02-12T01:08:48.466Z,4.54
2019-02-12T01:11:15.251Z,4.51
2019-02-12T01:13:42.170Z,4.50
2019-02-12T01:16:09.008Z,4.50
2019-02-12T01:18:35.761Z,4.44
2019-02-12T01:21:02.578Z,4.47
2019-02-12T01:23:29.325Z,4.48
2019-02-12T01:25:56.593Z,4.33
2019-02-12T01:28:23.395Z,4.13
2019-02-12T01:30:50.317Z,4.17
2019-02-12T01:33:17.472Z,4.17
2019-02-12T01:35:44.231Z,4.22
2019-02-12T01:38:11.133Z,4.27
2019-02-12T01:40:37.892Z,4.43
2019-02-12T01:43:04.637Z,4.61
2019-02-12T01:45:31.515Z,4.65
2019-02-12T01:47:58.587Z,4.81
2019-02-12T01:50:25.352Z,4.81
2019-02-12T01:52:52.712Z,4.68
2019-02-12T01:55:20.133Z,4.68
2019-02-12T01:57:47.152Z,4.65
2019-02-12T02:00:13.953Z,4.65
2019-02-12T02:02:41.137Z,4.73
2019-02-12T02:05:08.054Z,4.73
2019-02-12T02:07:34.828Z,4.68
2019-02-12T02:10:01.586Z,4.47
2019-02-12T02:12:28.534Z,4.29
2019-02-12T02:14:57.896Z,4.33
2019-02-12T02:17:24.827Z,4.33
2019-02-12T02:19:51.799Z,4.63
2019-02-12T02:22:18.657Z,4.81
2019-02-12T02:24:45.574Z,4.83
2019-02-12T02:27:12.443Z,4.88
2019-02-12T02:29:39.479Z,4.86
2019-02-12T02:32:06.475Z,4.83
2019-02-12T02:34:33.529Z,4.77
2019-02-12T02:37:00.259Z,4.77
2019-02-12T02:39:27.102Z,4.73
2019-02-12T02:41:54.079Z,4.73
2019-02-12T02:44:20.787Z,4.66
2019-02-12T02:46:47.682Z,4.79
2019-02-12T02:49:14.410Z,4.79
2019-02-12T02:51:41.133Z,4.71
2019-02-12T02:54:07.985Z,4.72
2019-02-12T02:56:34.741Z,4.94
2019-02-12T02:59:01.576Z,4.94
2019-02-12T03:01:28.349Z,4.93
2019-02-12T03:03:55.150Z,4.84
2019-02-12T03:06:22.398Z,4.68
2019-02-12T03:08:49.246Z,4.59
2019-02-12T03:11:16.400Z,4.57
2019-02-12T03:13:43.354Z,4.52
2019-02-12T03:16:13.264Z,4.32
2019-02-12T03:18:40.231Z,4.21
2019-02-12T03:21:06.985Z,4.05
2019-02-12T03:23:33.983Z,4.19
2019-02-12T03:26:00.678Z,4.19
2019-02-12T03:28:28.277Z,4.38
2019-02-12T03:30:55.140Z,4.36
2019-02-12T03:33:21.886Z,4.36
2019-02-12T03:35:48.783Z,4.56
2019-02-12T03:38:15.536Z,4.56
2019-02-12T03:40:42.319Z,4.60
2019-02-12T03:43:09.050Z,4.67
2019-02-12T03:45:35.820Z,4.27
2019-02-12T03:48:02.715Z,4.15
2019-02-12T03:50:29.482Z,4.15
2019-02-12T03:52:56.230Z,4.05
2019-02-12T03:55:23.456Z,4.21
2019-02-12T03:57:50.700Z,4.42
2019-02-12T04:00:17.456Z,4.57
2019-02-12T04:03:00.430Z,4.69
2019-02-12T04:05:27.331Z,4.67
2019-02-12T04:07:54.096Z,4.67
2019-02-12T04:10:20.879Z,4.70
2019-02-12T04:12:49.822Z,4.75
2019-02-12T04:15:16.690Z,4.70
2019-02-12T04:17:43.772Z,4.36
2019-02-12T04:20:10.540Z,4.16
2019-02-12T04:22:37.445Z,4.14
2019-02-12T04:25:04.212Z,4.28
2019-02-12T04:27:30.985Z,4.31
2019-02-12T04:29:57.729Z,4.25
2019-02-12T04:32:24.477Z,4.23
2019-02-12T04:34:51.232Z,4.10
2019-02-12T04:37:18.074Z,4.10
2019-02-12T04:39:45.102Z,4.07
2019-02-12T04:42:11.964Z,3.93
2019-02-12T04:44:38.874Z,4.02
2019-02-12T04:47:05.604Z,4.02
2019-02-12T04:49:32.336Z,4.11
2019-02-12T04:51:59.079Z,4.11
2019-02-12T04:54:25.926Z,4.05
2019-02-12T04:56:52.671Z,3.94
2019-02-12T04:59:19.432Z,4.00
2019-02-12T05:01:46.311Z,3.98
2019-02-12T05:04:13.175Z,3.98
2019-02-12T05:06:40.171Z,3.99
2019-02-12T05:09:20.505Z,3.99
2019-02-12T05:11:58.956Z,3.88
2019-02-12T05:14:25.835Z,3.90
2019-02-12T05:16:52.619Z,3.93
2019-02-12T05:19:22.392Z,3.97
2019-02-12T05:21:49.218Z,3.96
2019-02-12T05:24:15.976Z,3.96
2019-02-12T05:26:42.741Z,4.00
2019-02-12T05:29:09.484Z,3.97
2019-02-12T05:31:36.334Z,4.00
2019-02-12T05:34:04.971Z,4.21
2019-02-12T05:36:31.905Z,4.17
2019-02-12T05:39:00.671Z,4.28
2019-02-12T05:41:27.464Z,4.15
2019-02-12T05:43:54.229Z,4.15
2019-02-12T05:46:20.997Z,4.11
2019-02-12T05:48:47.958Z,4.05
2019-02-12T05:51:14.832Z,4.00
2019-02-12T05:53:44.563Z,4.13
2019-02-12T05:56:11.409Z,3.90
2019-02-12T05:58:38.148Z,4.00
2019-02-12T06:01:04.928Z,4.07
2019-02-12T06:03:31.801Z,4.05
2019-02-12T06:05:59.023Z,3.94
2019-02-12T06:08:26.552Z,3.98
2019-02-12T06:10:53.390Z,3.96
2019-02-12T06:13:20.309Z,4.02
2019-02-12T06:15:47.176Z,4.16
2019-02-12T06:18:14.021Z,4.13
2019-02-12T06:20:40.814Z,4.17
2019-02-12T06:23:07.696Z,4.25
2019-02-12T06:25:37.726Z,4.15
2019-02-12T06:28:04.649Z,4.13
2019-02-12T06:30:31.423Z,4.02
2019-02-12T06:33:06.938Z,3.92
2019-02-12T06:35:27.284Z,3.92
2019-02-12T06:37:54.227Z,3.84
2019-02-12T06:40:20.963Z,3.75
2019-02-12T06:42:50.780Z,3.76
2019-02-12T06:45:17.560Z,3.86
2019-02-12T06:47:44.307Z,3.87
2019-02-12T06:50:11.215Z,3.92
2019-02-12T06:52:37.934Z,3.95
2019-02-12T06:55:06.023Z,3.95
2019-02-12T06:57:32.769Z,3.95
2019-02-12T06:59:59.596Z,3.99
2019-02-12T07:03:22.614Z,4.01
2019-02-12T07:06:03.442Z,4.01
2019-02-12T07:09:03.924Z,3.97
2019-02-12T07:11:58.103Z,3.97
2019-02-12T07:14:30.273Z,3.98
2019-02-12T07:17:35.313Z,4.10
2019-02-12T07:20:18.061Z,4.28
2019-02-12T07:23:09.226Z,4.30
2019-02-12T07:25:56.282Z,4.32
2019-02-12T07:28:57.087Z,4.40
2019-02-12T07:32:20.199Z,4.32
2019-02-12T07:35:30.208Z,4.32
2019-02-12T07:38:20.916Z,4.32
2019-02-12T07:41:45.249Z,4.51
2019-02-12T07:44:51.261Z,4.51
2019-02-12T07:47:40.615Z,4.41
2019-02-12T07:50:33.770Z,4.41
2019-02-12T07:53:15.345Z,4.41
2019-02-12T07:56:42.563Z,4.54
2019-02-12T07:59:43.739Z,4.50
2019-02-12T08:02:55.559Z,4.72
2019-02-12T08:05:51.911Z,4.72
2019-02-12T08:08:55.014Z,4.72
2019-02-12T08:11:40.035Z,4.46
2019-02-12T08:14:25.335Z,4.46
2019-02-12T08:17:32.737Z,4.27
2019-02-12T08:20:53.746Z,4.27
2019-02-12T08:23:47.309Z,4.34
2019-02-12T08:26:39.529Z,4.48
2019-02-12T08:29:34.949Z,4.71
2019-02-12T08:32:31.666Z,4.76
2019-02-12T08:35:25.471Z,4.75
2019-02-12T08:38:50.019Z,4.83
2019-02-12T08:41:44.046Z,4.85
2019-02-12T08:44:50.193Z,5.04
2019-02-12T08:47:49.625Z,5.15
2019-02-12T08:50:37.153Z,5.10
2019-02-12T08:53:38.187Z,5.25
2019-02-12T08:56:27.511Z,5.25
2019-02-12T08:59:29.863Z,5.30
2019-02-12T09:02:37.322Z,5.31
2019-02-12T09:05:28.587Z,5.26
2019-02-12T09:08:02.416Z,5.29
2019-02-12T09:11:13.588Z,5.34
2019-02-12T09:14:10.634Z,5.35
2019-02-12T09:17:22.679Z,5.44
2019-02-12T09:20:49.689Z,5.46
2019-02-12T09:23:35.648Z,5.24
2019-02-12T09:26:29.534Z,5.24
2019-02-12T09:29:14.340Z,5.37
2019-02-12T09:32:32.294Z,5.37
2019-02-12T09:35:27.593Z,5.44
2019-02-12T09:38:04.775Z,5.39
2019-02-12T09:41:07.821Z,5.39
2019-02-12T09:44:13.016Z,5.35
2019-02-12T09:47:22.220Z,5.55
2019-02-12T09:50:33.481Z,5.64
2019-02-12T09:53:16.556Z,5.61
2019-02-12T09:56:25.169Z,5.61
2019-02-12T09:59:10.282Z,5.78
2019-02-12T10:01:58.870Z,5.78
2019-02-12T10:04:55.188Z,6.16
2019-02-12T10:07:56.405Z,6.09
2019-02-12T10:10:39.770Z,6.09
2019-02-12T10:13:30.626Z,6.51
2019-02-12T10:16:44.680Z,6.63
2019-02-12T10:19:34.138Z,6.76
2019-02-12T10:22:30.617Z,6.76
2019-02-12T10:25:37.011Z,6.91
2019-02-12T10:28:57.063Z,6.91
2019-02-12T10:31:27.230Z,6.93
2019-02-12T10:33:54.074Z,7.01
2019-02-12T10:36:21.100Z,6.92
2019-02-12T10:38:51.353Z,6.72
2019-02-12T10:41:18.198Z,6.72
2019-02-12T10:43:45.054Z,6.80
2019-02-12T10:46:11.854Z,6.80
2019-02-12T10:48:41.414Z,6.96
2019-02-12T10:51:08.313Z,6.96
2019-02-12T10:53:35.017Z,7.06
2019-02-12T10:56:02.312Z,7.17
2019-02-12T10:58:29.524Z,7.17
2019-02-12T11:00:56.408Z,7.24
2019-02-12T11:03:23.494Z,7.17
2019-02-12T11:05:52.466Z,7.29
2019-02-12T11:08:19.728Z,7.29
2019-02-12T11:10:48.816Z,7.22
2019-02-12T11:13:16.040Z,7.16
2019-02-12T11:15:43.211Z,7.29
2019-02-12T11:18:12.496Z,7.37
2019-02-12T11:20:39.643Z,7.25
2019-02-12T11:23:06.833Z,7.20
2019-02-12T11:25:33.900Z,7.43
2019-02-12T11:28:05.808Z,7.43
2019-02-12T11:30:32.688Z,7.56
2019-02-12T11:32:59.752Z,7.68
2019-02-12T11:35:26.667Z,7.68
2019-02-12T11:37:53.956Z,7.49
2019-02-12T11:40:25.798Z,7.49
2019-02-12T11:42:52.736Z,7.56
2019-02-12T11:45:19.759Z,7.66
2019-02-12T11:47:52.244Z,7.71
2019-02-12T11:50:18.994Z,7.66
2019-02-12T11:52:45.858Z,7.71
2019-02-12T11:55:12.627Z,7.70
2019-02-12T11:57:40.106Z,7.76
2019-02-12T12:00:10.160Z,7.88
2019-02-12T12:02:42.052Z,7.92
2019-02-12T12:05:07.728Z,7.93
2019-02-12T12:07:34.488Z,7.94
2019-02-12T12:10:02.647Z,8.01
2019-02-12T12:12:29.772Z,8.01
2019-02-12T12:14:56.951Z,7.99
2019-02-12T12:17:23.812Z,8.05
2019-02-12T12:19:51.084Z,8.11
2019-02-12T12:22:18.666Z,8.12
2019-02-12T12:24:51.400Z,8.25
2019-02-12T12:27:16.655Z,8.30
2019-02-12T12:29:43.618Z,8.30
2019-02-12T12:32:10.888Z,8.30
2019-02-12T12:34:38.080Z,8.38
2019-02-12T12:37:04.934Z,8.46
2019-02-12T12:39:31.830Z,8.49
2019-02-12T12:41:58.828Z,8.43
2019-02-12T12:44:25.589Z,8.47
2019-02-12T12:46:52.343Z,8.52
2019-02-12T12:49:22.051Z,8.61
2019-02-12T12:51:48.824Z,8.54
2019-02-12T12:54:15.704Z,8.62
2019-02-12T12:56:43.129Z,8.65
2019-02-12T12:59:10.060Z,8.68
2019-02-12T13:01:37.433Z,8.72
2019-02-12T13:04:04.671Z,8.66
2019-02-12T13:06:31.482Z,8.66
2019-02-12T13:08:58.582Z,8.65
2019-02-12T13:11:26.655Z,8.62
2019-02-12T13:13:54.128Z,8.60
2019-02-12T13:16:20.861Z,8.62
2019-02-12T13:18:48.593Z,8.61
2019-02-12T13:21:15.602Z,8.66
2019-02-12T13:23:43.208Z,8.51
2019-02-12T13:26:09.975Z,8.42
2019-02-12T13:28:36.723Z,8.59
2019-02-12T13:31:05.375Z,8.65
2019-02-12T13:33:32.308Z,8.69
2019-02-12T13:36:01.031Z,8.63
2019-02-12T13:38:28.388Z,8.48
2019-02-12T13:40:56.211Z,8.50
2019-02-12T13:43:23.196Z,8.40
2019-02-12T13:45:50.164Z,8.40
2019-02-12T13:48:17.193Z,8.23
2019-02-12T13:50:43.929Z,8.17
2019-02-12T13:53:10.862Z,8.10
2019-02-12T13:55:37.837Z,8.15
2019-02-12T13:58:06.288Z,8.24
2019-02-12T14:00:33.204Z,8.52
2019-02-12T14:02:59.965Z,8.72
2019-02-12T14:05:26.853Z,8.83
2019-02-12T14:07:53.902Z,8.88
2019-02-12T14:10:21.037Z,8.99
2019-02-12T14:12:47.989Z,8.80
2019-02-12T14:15:15.019Z,8.78
2019-02-12T14:17:42.329Z,8.58
2019-02-12T14:20:11.047Z,8.49
2019-02-12T14:22:37.868Z,8.76
2019-02-12T14:25:05.033Z,8.89
2019-02-12T14:27:32.238Z,8.79
2019-02-12T14:29:59.447Z,8.80
2019-02-12T14:32:26.255Z,8.90
2019-02-12T14:34:53.441Z,8.92
2019-02-12T14:37:20.339Z,8.97
2019-02-12T14:39:47.130Z,9.02
2019-02-12T14:42:14.047Z,9.00
2019-02-12T14:44:41.015Z,9.01
2019-02-12T14:47:07.899Z,8.89
2019-02-12T14:49:35.479Z,8.78
2019-02-12T14:52:03.263Z,8.84
2019-02-12T14:54:30.036Z,8.88
2019-02-12T14:56:57.665Z,8.78
2019-02-12T14:59:24.890Z,8.77
2019-02-12T15:01:51.639Z,8.85
2019-02-12T15:04:18.562Z,8.79
2019-02-12T15:06:46.018Z,8.84
2019-02-12T15:09:14.530Z,8.78
2019-02-12T15:11:41.321Z,8.72
2019-02-12T15:14:10.643Z,8.67
2019-02-12T15:16:37.499Z,8.63
2019-02-12T15:19:05.058Z,8.61
2019-02-12T15:21:31.891Z,8.62
2019-02-12T15:24:04.613Z,8.62
2019-02-12T15:26:31.392Z,8.66
2019-02-12T15:28:58.198Z,8.70
2019-02-12T15:31:25.742Z,8.62
2019-02-12T15:33:54.168Z,8.61
2019-02-12T15:36:20.996Z,8.52
2019-02-12T15:38:48.557Z,8.53
2019-02-12T15:41:19.307Z,8.44
2019-02-12T15:43:46.141Z,8.42
2019-02-12T15:46:13.411Z,8.51
2019-02-12T15:48:40.463Z,8.56
2019-02-12T15:51:07.353Z,8.59
2019-02-12T15:53:34.098Z,8.76
2019-02-12T15:56:09.877Z,8.67
2019-02-12T15:58:36.733Z,8.70
2019-02-12T16:01:04.369Z,8.63
2019-02-12T16:03:34.014Z,8.62
2019-02-12T16:06:00.937Z,8.48
2019-02-12T16:08:29.661Z,8.35
2019-02-12T16:10:57.512Z,8.30
2019-02-12T16:13:25.627Z,8.30
2019-02-12T16:15:52.395Z,8.35
2019-02-12T16:18:21.367Z,8.43
2019-02-12T16:20:47.830Z,8.45
2019-02-12T16:23:14.676Z,8.45
2019-02-12T16:25:42.023Z,8.20
2019-02-12T16:28:08.926Z,8.20
2019-02-12T16:30:35.787Z,8.18
2019-02-12T16:33:05.348Z,8.19
2019-02-12T16:35:32.298Z,8.19
2019-02-12T16:38:02.014Z,8.16
2019-02-12T16:40:29.208Z,8.14
2019-02-12T16:42:56.067Z,8.01
2019-02-12T16:45:33.793Z,7.89
2019-02-12T16:48:00.632Z,7.90
2019-02-12T16:50:27.776Z,7.91
2019-02-12T16:52:54.593Z,7.89
2019-02-12T16:55:21.749Z,7.85
2019-02-12T16:57:48.981Z,7.91
2019-02-12T17:00:16.184Z,7.92
2019-02-12T17:02:43.381Z,7.93
2019-02-12T17:05:10.855Z,7.91
2019-02-12T17:07:37.914Z,7.88
2019-02-12T17:10:09.659Z,7.81
2019-02-12T17:12:36.525Z,7.81
2019-02-12T17:15:03.782Z,7.78
2019-02-12T17:17:30.489Z,7.79
2019-02-12T17:19:59.989Z,7.68
2019-02-12T17:22:27.165Z,7.68
2019-02-12T17:24:54.448Z,7.72
2019-02-12T17:27:21.621Z,7.64
2019-02-12T17:29:48.531Z,7.64
2019-02-12T17:32:15.928Z,7.61
2019-02-12T17:34:42.794Z,7.54
2019-02-12T17:37:09.528Z,7.48
2019-02-12T17:39:36.321Z,7.44
2019-02-12T17:42:03.473Z,7.40
2019-02-12T17:44:30.355Z,7.37
2019-02-12T17:46:57.141Z,7.34
2019-02-12T17:49:23.944Z,7.41
2019-02-12T17:51:53.937Z,7.31
2019-02-12T17:54:20.797Z,7.20
2019-02-12T17:56:47.632Z,7.11
2019-02-12T17:59:17.034Z,7.02
2019-02-12T18:01:43.881Z,6.94
2019-02-12T18:04:10.855Z,6.86
2019-02-12T18:06:37.722Z,6.78
2019-02-12T18:09:06.163Z,6.72
2019-02-12T18:11:33.310Z,6.66
2019-02-12T18:14:00.559Z,6.68
2019-02-12T18:16:27.736Z,6.71
2019-02-12T18:18:54.630Z,6.77
2019-02-12T18:21:21.325Z,6.75
2019-02-12T18:23:48.346Z,6.76
2019-02-12T18:26:15.382Z,6.79
2019-02-12T18:28:42.516Z,6.79
2019-02-12T18:31:11.186Z,6.85
2019-02-12T18:33:37.933Z,6.85
2019-02-12T18:36:04.684Z,6.87
2019-02-12T18:38:31.435Z,6.91
2019-02-12T18:40:58.173Z,6.80
2019-02-12T18:43:26.254Z,6.58
2019-02-12T18:45:53.530Z,6.35
2019-02-12T18:48:20.746Z,6.42
2019-02-12T18:50:47.478Z,6.42
2019-02-12T18:53:14.574Z,6.36
2019-02-12T18:55:43.736Z,6.27
2019-02-12T18:58:10.458Z,6.27
2019-02-12T19:00:37.251Z,6.25
2019-02-12T19:03:06.590Z,6.19
2019-02-12T19:05:33.684Z,6.13
2019-02-12T19:08:00.535Z,6.06
2019-02-12T19:10:27.284Z,6.06
2019-02-12T19:12:54.360Z,6.04
2019-02-12T19:15:21.115Z,5.99
2019-02-12T19:17:57.708Z,5.88
2019-02-12T19:20:24.453Z,5.88
2019-02-12T19:22:51.178Z,5.78
2019-02-12T19:25:18.147Z,5.71
2019-02-12T19:27:45.108Z,5.74
2019-02-12T19:30:12.844Z,5.74
2019-02-12T19:32:40.912Z,5.73
2019-02-12T19:35:08.384Z,5.79
2019-02-12T19:37:35.224Z,5.78
2019-02-12T19:40:02.073Z,5.67
2019-02-12T19:42:28.774Z,5.65
2019-02-12T19:44:55.657Z,5.58
2019-02-12T19:47:22.395Z,5.58
2019-02-12T19:49:49.142Z,5.52
2019-02-12T19:52:15.889Z,5.46
2019-02-12T19:54:42.632Z,5.28
2019-02-12T19:57:10.639Z,5.28
2019-02-12T19:59:37.888Z,5.30
2019-02-12T20:02:04.615Z,5.06
2019-02-12T20:04:31.500Z,5.02
2019-02-12T20:06:58.244Z,4.93
2019-02-12T20:09:25.217Z,4.93
2019-02-12T20:11:51.968Z,4.99
2019-02-12T20:14:18.716Z,4.99
2019-02-12T20:16:45.678Z,4.97
2019-02-12T20:19:12.411Z,4.99
2019-02-12T20:21:40.976Z,4.88
2019-02-12T20:24:07.669Z,4.88
2019-02-12T20:26:34.554Z,4.88
2019-02-12T20:29:01.328Z,4.82
2019-02-12T20:31:28.421Z,4.65
2019-02-12T20:33:57.178Z,4.47
2019-02-12T20:36:26.990Z,4.47
2019-02-12T20:38:53.878Z,4.25
2019-02-12T20:41:20.897Z,4.26
2019-02-12T20:43:47.657Z,4.26
2019-02-12T20:46:14.449Z,4.28
2019-02-12T20:48:41.197Z,4.29
2019-02-12T20:51:07.944Z,4.27
2019-02-12T20:53:37.045Z,4.41
2019-02-12T20:56:03.868Z,4.30
2019-02-12T20:58:34.088Z,4.27
2019-02-12T21:01:01.361Z,4.17
2019-02-12T21:03:28.080Z,4.17
2019-02-12T21:05:54.912Z,4.04
2019-02-12T21:08:21.707Z,4.04
2019-02-12T21:10:48.683Z,4.01
2019-02-12T21:13:16.203Z,3.98
2019-02-12T21:15:43.014Z,3.93
2019-02-12T21:18:09.715Z,3.97
2019-02-12T21:20:39.529Z,3.81
2019-02-12T21:23:06.754Z,3.72
2019-02-12T21:25:34.111Z,3.72
2019-02-12T21:28:00.878Z,3.78
2019-02-12T21:30:30.339Z,3.53
2019-02-12T21:32:59.763Z,3.51
2019-02-12T21:35:27.077Z,3.58
2019-02-12T21:37:54.610Z,3.59
2019-02-12T21:40:21.515Z,3.56
2019-02-12T21:42:51.032Z,3.74
2019-02-12T21:45:22.808Z,3.74
2019-02-12T21:47:50.906Z,3.63
2019-02-12T21:50:18.085Z,3.51
2019-02-12T21:52:45.308Z,3.51
2019-02-12T21:55:12.487Z,3.29
2019-02-12T21:57:39.408Z,3.33
2019-02-12T22:00:11.081Z,3.36
2019-02-12T22:02:37.978Z,3.41
2019-02-12T22:05:06.469Z,3.45
2019-02-12T22:07:33.239Z,3.47
2019-02-12T22:10:00.214Z,3.50
2019-02-12T22:12:27.080Z,3.47
2019-02-12T22:14:54.113Z,3.34
2019-02-12T22:17:20.837Z,3.25
2019-02-12T22:19:47.856Z,3.18
2019-02-12T22:22:16.849Z,3.16
2019-02-12T22:24:43.758Z,3.19
2019-02-12T22:27:10.509Z,3.12
2019-02-12T22:29:37.323Z,2.84
2019-02-12T22:32:04.123Z,2.69
2019-02-12T22:34:33.806Z,2.70
2019-02-12T22:37:00.559Z,2.84
2019-02-12T22:39:27.646Z,2.68
2019-02-12T22:41:54.895Z,2.62
2019-02-12T22:44:22.250Z,2.51
2019-02-12T22:46:49.166Z,2.67
2019-02-12T22:49:16.140Z,2.79
2019-02-12T22:51:43.429Z,2.87
2019-02-12T22:54:10.215Z,2.89
2019-02-12T22:56:37.699Z,2.93
2019-02-12T22:59:04.791Z,2.96
2019-02-12T23:01:36.494Z,2.72
2019-02-12T23:04:03.775Z,2.75
2019-02-12T23:06:30.752Z,2.83
2019-02-12T23:08:57.628Z,2.69
2019-02-12T23:11:24.378Z,2.69
2019-02-12T23:13:51.243Z,2.80
2019-02-12T23:16:18.129Z,2.81
2019-02-12T23:18:44.855Z,2.82
2019-02-12T23:21:11.617Z,2.78
2019-02-12T23:23:38.363Z,2.75
2019-02-12T23:26:05.079Z,2.79
2019-02-12T23:28:31.832Z,2.88
2019-02-12T23:30:58.589Z,2.97
2019-02-12T23:33:25.602Z,2.93
2019-02-12T23:35:52.516Z,2.83
2019-02-12T23:38:19.313Z,2.82
2019-02-12T23:40:51.359Z,2.75
2019-02-12T23:43:18.709Z,2.77
2019-02-12T23:45:45.576Z,2.71
2019-02-12T23:48:12.284Z,2.61
2019-02-12T23:50:39.167Z,2.68
2019-02-12T23:53:06.028Z,2.79
2019-02-12T23:55:32.767Z,2.65
2019-02-12T23:58:05.802Z,2.61
